createdAt,value
2023-03-17T00:00:46.353Z,62.67
2023-03-17T00:03:26.929Z,62.51
2023-03-17T00:05:55.198Z,62.37
2023-03-17T00:08:28.548Z,62.57
2023-03-17T00:10:56.335Z,62.56
2023-03-17T00:13:24.056Z,62.58
2023-03-17T00:15:59.489Z,62.52
2023-03-17T00:18:27.355Z,62.52
2023-03-17T00:20:54.185Z,62.59
2023-03-17T00:23:23.389Z,62.63
2023-03-17T00:25:51.808Z,62.61
2023-03-17T00:28:22.184Z,62.51
2023-03-17T00:30:54.846Z,62.72
2023-03-17T00:33:28.501Z,62.63
2023-03-17T00:35:57.295Z,62.65
2023-03-17T00:38:25.055Z,62.85
2023-03-17T00:40:51.914Z,62.76
2023-03-17T00:43:22.096Z,62.84
2023-03-17T00:45:49.498Z,62.85
2023-03-17T00:48:18.914Z,62.91
2023-03-17T00:50:47.657Z,62.84
2023-03-17T00:53:18.127Z,62.95
2023-03-17T00:55:46.012Z,62.83
2023-03-17T00:58:18.444Z,62.86
2023-03-17T01:00:45.756Z,62.95
2023-03-17T01:03:13.396Z,62.95
2023-03-17T01:05:41.499Z,62.85
2023-03-17T01:08:09.459Z,62.87
2023-03-17T01:10:37.328Z,62.78
2023-03-17T01:13:05.938Z,62.77
2023-03-17T01:15:34.159Z,62.89
2023-03-17T01:18:02.785Z,62.81
2023-03-17T01:20:33.445Z,62.84
2023-03-17T01:23:02.458Z,62.86
2023-03-17T01:25:29.512Z,62.73
2023-03-17T01:27:57.956Z,62.77
2023-03-17T01:30:24.782Z,62.87
2023-03-17T01:32:53.303Z,62.84
2023-03-17T01:35:20.612Z,62.79
2023-03-17T01:37:47.750Z,62.80
2023-03-17T01:40:28.166Z,62.79
2023-03-17T01:43:03.370Z,62.88
2023-03-17T01:46:07.511Z,62.87
2023-03-17T01:48:40.687Z,62.88
2023-03-17T01:51:11.654Z,63.02
2023-03-17T01:53:39.824Z,63.03
2023-03-17T01:56:08.552Z,62.99
2023-03-17T01:58:36.090Z,63.04
2023-03-17T02:01:03.264Z,63.05
2023-03-17T02:03:30.020Z,63.16
2023-03-17T02:05:59.092Z,63.18
2023-03-17T02:08:26.404Z,63.16
2023-03-17T02:11:08.155Z,63.25
2023-03-17T02:13:35.170Z,63.21
2023-03-17T02:16:02.346Z,63.11
2023-03-17T02:18:29.259Z,63.14
2023-03-17T02:21:30.540Z,63.01
2023-03-17T02:24:00.846Z,62.88
2023-03-17T02:26:31.443Z,63.05
2023-03-17T02:28:58.344Z,62.96
2023-03-17T02:31:26.909Z,62.86
2023-03-17T02:33:54.336Z,62.75
2023-03-17T02:36:22.218Z,62.84
2023-03-17T02:38:49.465Z,62.78
2023-03-17T02:41:16.981Z,62.76
2023-03-17T02:43:43.842Z,62.91
2023-03-17T02:46:10.763Z,62.98
2023-03-17T02:48:38.915Z,63.00
2023-03-17T02:51:06.134Z,63.17
2023-03-17T02:53:33.027Z,63.08
2023-03-17T02:55:59.813Z,63.11
2023-03-17T02:58:27.119Z,62.99
2023-03-17T03:00:54.034Z,62.98
2023-03-17T03:03:21.321Z,62.87
2023-03-17T03:05:48.239Z,62.95
2023-03-17T03:08:15.267Z,62.92
2023-03-17T03:10:42.616Z,62.95
2023-03-17T03:13:09.459Z,62.93
2023-03-17T03:15:36.303Z,62.99
2023-03-17T03:18:03.386Z,62.98
2023-03-17T03:20:30.530Z,62.98
2023-03-17T03:22:57.650Z,63.04
2023-03-17T03:25:24.402Z,62.85
2023-03-17T03:27:51.717Z,62.79
2023-03-17T03:30:18.558Z,62.76
2023-03-17T03:32:45.487Z,62.81
2023-03-17T03:35:12.333Z,62.82
2023-03-17T03:37:39.162Z,62.80
2023-03-17T03:40:07.565Z,62.85
2023-03-17T03:42:34.317Z,62.87
2023-03-17T03:45:01.501Z,62.86
2023-03-17T03:47:28.273Z,62.76
2023-03-17T03:49:55.202Z,62.65
2023-03-17T03:52:22.047Z,62.93
2023-03-17T03:54:48.988Z,62.84
2023-03-17T03:57:15.846Z,62.92
2023-03-17T03:59:42.626Z,62.92
2023-03-17T04:02:09.792Z,62.87
2023-03-17T04:04:37.083Z,62.95
2023-03-17T04:07:03.921Z,62.79
2023-03-17T04:09:31.020Z,62.79
2023-03-17T04:11:57.741Z,62.99
2023-03-17T04:14:24.558Z,63.04
2023-03-17T04:16:51.387Z,62.99
2023-03-17T04:19:18.341Z,63.08
2023-03-17T04:21:45.124Z,63.09
2023-03-17T04:24:11.905Z,62.97
2023-03-17T04:26:39.570Z,63.13
2023-03-17T04:29:08.098Z,63.08
2023-03-17T04:31:36.292Z,63.00
2023-03-17T04:34:03.529Z,63.12
2023-03-17T04:36:30.264Z,62.98
2023-03-17T04:38:57.014Z,63.06
2023-03-17T04:41:24.239Z,63.05
2023-03-17T04:43:51.319Z,63.08
2023-03-17T04:46:18.135Z,63.08
2023-03-17T04:48:44.974Z,63.29
2023-03-17T04:51:12.205Z,63.05
2023-03-17T04:53:39.191Z,62.85
2023-03-17T04:56:06.416Z,63.04
2023-03-17T04:58:33.347Z,63.07
2023-03-17T05:01:00.697Z,63.08
2023-03-17T05:03:28.688Z,63.08
2023-03-17T05:05:57.662Z,63.09
2023-03-17T05:08:26.284Z,62.69
2023-03-17T05:10:53.164Z,62.61
2023-03-17T05:13:20.014Z,62.68
2023-03-17T05:15:48.045Z,62.74
2023-03-17T05:18:16.258Z,62.63
2023-03-17T05:20:43.766Z,62.64
2023-03-17T05:23:10.608Z,62.45
2023-03-17T05:25:37.397Z,62.55
2023-03-17T05:28:04.568Z,62.48
2023-03-17T05:30:31.744Z,62.55
2023-03-17T05:32:59.364Z,62.49
2023-03-17T05:35:27.579Z,62.48
2023-03-17T05:37:54.610Z,62.48
2023-03-17T05:40:23.778Z,62.34
2023-03-17T05:42:53.675Z,62.23
2023-03-17T05:45:20.525Z,62.23
2023-03-17T05:47:47.566Z,62.24
2023-03-17T05:50:14.378Z,62.16
2023-03-17T05:52:41.467Z,62.01
2023-03-17T05:55:08.717Z,61.79
2023-03-17T05:57:35.590Z,61.60
2023-03-17T06:00:02.661Z,61.74
2023-03-17T06:02:32.131Z,61.89
2023-03-17T06:04:59.229Z,61.80
2023-03-17T06:07:28.396Z,61.88
2023-03-17T06:09:58.107Z,61.84
2023-03-17T06:12:25.897Z,62.02
2023-03-17T06:14:52.683Z,62.12
2023-03-17T06:17:19.605Z,62.35
2023-03-17T06:19:49.022Z,62.49
2023-03-17T06:22:16.299Z,62.50
2023-03-17T06:24:43.001Z,62.45
2023-03-17T06:27:11.057Z,62.49
2023-03-17T06:29:57.866Z,62.03
2023-03-17T06:32:25.307Z,61.90
2023-03-17T06:34:53.874Z,61.72
2023-03-17T06:44:30.761Z,61.14
2023-03-17T06:46:58.460Z,61.40
2023-03-17T06:49:25.844Z,61.23
2023-03-17T06:51:52.684Z,61.22
2023-03-17T06:54:20.697Z,61.42
2023-03-17T06:56:47.713Z,61.21
2023-03-17T06:59:14.546Z,61.34
2023-03-17T07:01:41.361Z,61.19
2023-03-17T07:04:08.488Z,61.13
2023-03-17T07:06:35.787Z,60.89
2023-03-17T07:09:03.785Z,60.74
2023-03-17T07:11:30.855Z,60.61
2023-03-17T07:13:57.677Z,60.35
2023-03-17T07:16:24.762Z,60.39
2023-03-17T07:18:51.742Z,59.92
2023-03-17T07:21:18.761Z,59.90
2023-03-17T07:23:45.684Z,59.85
2023-03-17T07:26:12.868Z,59.71
2023-03-17T07:28:40.423Z,59.51
2023-03-17T07:31:14.151Z,59.26
2023-03-17T07:33:42.155Z,59.48
2023-03-17T07:36:09.238Z,59.63
2023-03-17T07:38:37.091Z,59.72
2023-03-17T07:41:04.983Z,59.47
2023-03-17T07:43:31.997Z,59.36
2023-03-17T07:45:59.109Z,59.25
2023-03-17T07:48:26.127Z,59.10
2023-03-17T07:50:53.102Z,59.21
2023-03-17T07:53:19.948Z,59.27
2023-03-17T07:55:47.174Z,58.87
2023-03-17T07:58:15.861Z,58.99
2023-03-17T08:00:42.906Z,59.01
2023-03-17T08:03:11.221Z,58.72
2023-03-17T08:05:38.185Z,58.22
2023-03-17T08:08:08.569Z,58.37
2023-03-17T08:10:35.990Z,58.49
2023-03-17T08:13:03.053Z,58.32
2023-03-17T08:15:31.324Z,57.91
2023-03-17T08:17:58.086Z,57.83
2023-03-17T08:20:24.890Z,57.60
2023-03-17T08:22:51.673Z,57.63
2023-03-17T08:25:18.535Z,57.51
2023-03-17T08:27:45.366Z,57.87
2023-03-17T08:30:12.840Z,57.84
2023-03-17T08:32:39.788Z,57.63
2023-03-17T08:35:06.804Z,57.71
2023-03-17T08:37:33.884Z,57.56
2023-03-17T08:40:01.346Z,57.50
2023-03-17T08:42:28.235Z,57.50
2023-03-17T08:44:55.087Z,57.34
2023-03-17T08:47:21.928Z,57.24
2023-03-17T08:49:48.722Z,57.02
2023-03-17T08:52:16.459Z,56.37
2023-03-17T08:54:43.304Z,55.95
2023-03-17T08:57:10.187Z,55.79
2023-03-17T08:59:37.270Z,55.89
2023-03-17T09:02:04.315Z,56.05
2023-03-17T09:04:31.187Z,55.71
2023-03-17T09:07:03.830Z,55.45
2023-03-17T09:09:32.235Z,55.23
2023-03-17T09:11:59.469Z,54.63
2023-03-17T09:14:26.371Z,54.44
2023-03-17T09:16:53.417Z,54.55
2023-03-17T09:19:20.380Z,54.54
2023-03-17T09:21:47.944Z,54.31
2023-03-17T09:24:14.757Z,54.18
2023-03-17T09:26:41.920Z,53.63
2023-03-17T09:29:08.952Z,53.76
2023-03-17T09:31:36.927Z,53.95
2023-03-17T09:34:05.222Z,53.59
2023-03-17T09:36:35.542Z,53.06
2023-03-17T09:39:02.398Z,53.05
2023-03-17T09:41:31.957Z,53.18
2023-03-17T09:44:20.219Z,53.23
2023-03-17T09:47:05.490Z,53.27
2023-03-17T09:49:52.449Z,53.14
2023-03-17T09:52:36.957Z,53.04
2023-03-17T09:55:08.413Z,53.10
2023-03-17T09:57:38.149Z,52.81
2023-03-17T10:00:15.573Z,52.60
2023-03-17T10:02:43.380Z,52.53
2023-03-17T10:05:27.074Z,52.47
2023-03-17T10:08:29.411Z,52.05
2023-03-17T10:11:16.260Z,51.29
2023-03-17T10:14:04.629Z,50.89
2023-03-17T10:16:43.063Z,50.64
2023-03-17T10:19:30.809Z,50.72
2023-03-17T10:22:05.571Z,50.76
2023-03-17T10:24:34.376Z,50.19
2023-03-17T10:27:06.489Z,49.96
2023-03-17T10:29:33.326Z,50.04
2023-03-17T10:32:00.419Z,49.61
2023-03-17T10:34:39.635Z,49.31
2023-03-17T10:37:17.711Z,48.81
2023-03-17T10:39:48.259Z,49.13
2023-03-17T10:42:30.493Z,49.34
2023-03-17T10:45:01.179Z,49.02
2023-03-17T10:47:38.410Z,48.84
2023-03-17T10:50:32.172Z,48.66
2023-03-17T10:53:03.303Z,48.86
2023-03-17T10:55:34.221Z,48.77
2023-03-17T10:58:03.780Z,48.38
2023-03-17T11:00:36.883Z,48.26
2023-03-17T11:03:12.398Z,47.92
2023-03-17T11:05:40.147Z,47.77
2023-03-17T11:08:25.181Z,47.83
2023-03-17T11:10:56.739Z,47.95
2023-03-17T11:13:30.242Z,47.66
2023-03-17T11:16:22.657Z,48.13
2023-03-17T11:18:54.933Z,47.96
2023-03-17T11:21:30.242Z,48.22
2023-03-17T11:24:14.290Z,47.59
2023-03-17T11:26:48.988Z,47.41
2023-03-17T11:29:30.304Z,49.85
2023-03-17T11:31:59.345Z,50.03
2023-03-17T11:34:41.447Z,49.23
2023-03-17T11:37:25.353Z,48.07
2023-03-17T11:40:03.060Z,47.47
2023-03-17T11:42:45.022Z,46.36
2023-03-17T11:45:12.537Z,46.26
2023-03-17T11:47:51.369Z,45.96
2023-03-17T11:50:34.479Z,45.77
2023-03-17T11:53:01.826Z,45.19
2023-03-17T11:55:50.194Z,45.38
2023-03-17T11:58:44.559Z,45.04
2023-03-17T12:01:27.278Z,44.77
2023-03-17T12:04:12.375Z,44.39
2023-03-17T12:06:50.750Z,44.30
2023-03-17T12:09:35.927Z,43.96
2023-03-17T12:12:04.659Z,43.69
2023-03-17T12:14:40.511Z,43.67
2023-03-17T12:17:17.018Z,42.95
2023-03-17T12:20:12.677Z,42.68
2023-03-17T12:22:57.150Z,43.29
2023-03-17T12:25:40.657Z,43.25
2023-03-17T12:28:23.113Z,43.30
2023-03-17T12:30:56.061Z,43.05
2023-03-17T12:33:43.926Z,42.80
2023-03-17T12:36:15.454Z,42.56
2023-03-17T12:39:01.799Z,42.42
2023-03-17T12:41:41.623Z,41.99
2023-03-17T12:44:42.137Z,42.02
2023-03-17T12:47:21.959Z,42.52
2023-03-17T12:49:56.997Z,42.87
2023-03-17T12:52:37.566Z,43.02
2023-03-17T12:55:12.299Z,42.86
2023-03-17T12:57:45.949Z,42.78
2023-03-17T13:00:27.169Z,42.55
2023-03-17T13:03:19.065Z,42.54
2023-03-17T13:05:50.030Z,42.46
2023-03-17T13:08:35.137Z,42.42
2023-03-17T13:11:47.127Z,42.19
2023-03-17T13:14:23.817Z,41.67
2023-03-17T13:16:50.765Z,41.93
2023-03-17T13:19:25.162Z,41.38
2023-03-17T13:22:01.183Z,41.29
2023-03-17T13:24:51.442Z,41.31
2023-03-17T13:27:30.968Z,41.54
2023-03-17T13:29:59.371Z,41.86
2023-03-17T13:32:26.571Z,41.79
2023-03-17T13:34:55.885Z,41.89
2023-03-17T13:37:44.263Z,41.86
2023-03-17T13:40:23.596Z,41.96
2023-03-17T13:43:01.567Z,41.96
2023-03-17T13:45:46.557Z,42.08
2023-03-17T13:48:27.485Z,42.31
2023-03-17T13:51:02.267Z,42.72
2023-03-17T13:53:33.191Z,42.81
2023-03-17T13:56:21.913Z,42.92
2023-03-17T13:59:12.550Z,42.90
2023-03-17T14:01:52.720Z,42.74
2023-03-17T14:04:25.832Z,43.12
2023-03-17T14:06:56.770Z,43.54
2023-03-17T14:09:36.252Z,43.51
2023-03-17T14:12:11.105Z,43.74
2023-03-17T14:15:06.964Z,43.88
2023-03-17T14:18:08.802Z,44.04
2023-03-17T14:20:35.783Z,44.22
2023-03-17T14:23:04.244Z,44.17
2023-03-17T14:25:39.050Z,44.33
2023-03-17T14:28:11.477Z,44.44
2023-03-17T14:30:41.039Z,44.40
2023-03-17T14:33:26.848Z,44.41
2023-03-17T14:35:58.750Z,44.34
2023-03-17T14:38:28.404Z,44.33
2023-03-17T14:41:06.929Z,44.47
2023-03-17T14:43:36.197Z,44.34
2023-03-17T14:46:04.598Z,44.41
2023-03-17T14:48:37.126Z,44.52
2023-03-17T14:51:28.678Z,44.43
2023-03-17T14:54:00.669Z,44.41
2023-03-17T14:56:35.068Z,44.38
2023-03-17T14:59:08.292Z,44.29
2023-03-17T15:01:39.761Z,44.31
2023-03-17T15:04:18.671Z,44.48
2023-03-17T15:06:52.999Z,44.62
2023-03-17T15:09:28.696Z,44.74
2023-03-17T15:12:07.281Z,44.77
2023-03-17T15:14:38.894Z,44.94
2023-03-17T15:17:16.245Z,44.89
2023-03-17T15:19:46.682Z,44.90
2023-03-17T15:22:40.286Z,44.78
2023-03-17T15:25:28.807Z,44.40
2023-03-17T15:27:56.096Z,44.37
2023-03-17T15:30:23.769Z,44.43
2023-03-17T15:32:57.896Z,44.67
2023-03-17T15:35:24.724Z,44.77
2023-03-17T15:37:51.545Z,44.77
2023-03-17T15:40:18.734Z,44.98
2023-03-17T15:42:45.745Z,45.07
2023-03-17T15:45:16.845Z,45.26
2023-03-17T15:47:47.207Z,45.24
2023-03-17T15:50:23.975Z,45.29
2023-03-17T15:52:58.107Z,45.18
2023-03-17T15:55:30.990Z,45.25
2023-03-17T15:57:58.725Z,45.13
2023-03-17T16:00:48.160Z,45.14
2023-03-17T16:03:32.443Z,45.34
2023-03-17T16:06:00.662Z,45.20
2023-03-17T16:08:27.519Z,45.15
2023-03-17T16:10:54.652Z,45.17
2023-03-17T16:13:22.427Z,45.10
2023-03-17T16:15:59.984Z,45.20
2023-03-17T16:18:37.765Z,45.14
2023-03-17T16:21:24.683Z,45.15
2023-03-17T16:23:51.646Z,45.23
2023-03-17T16:26:18.543Z,45.27
2023-03-17T16:28:47.804Z,45.35
2023-03-17T16:31:22.213Z,45.18
2023-03-17T16:33:50.402Z,45.16
2023-03-17T16:36:19.559Z,45.27
2023-03-17T16:38:47.757Z,45.38
2023-03-17T16:41:23.265Z,45.32
2023-03-17T16:43:53.727Z,45.26
2023-03-17T16:46:21.897Z,45.27
2023-03-17T16:48:50.375Z,45.32
2023-03-17T16:51:17.935Z,45.29
2023-03-17T16:53:45.783Z,45.23
2023-03-17T16:56:21.569Z,45.24
2023-03-17T16:58:49.017Z,45.17
2023-03-17T17:01:20.056Z,45.13
2023-03-17T17:03:47.568Z,45.19
2023-03-17T17:06:15.129Z,45.35
2023-03-17T17:08:46.351Z,45.28
2023-03-17T17:11:14.957Z,45.30
2023-03-17T17:13:43.521Z,45.31
2023-03-17T17:16:25.536Z,45.41
2023-03-17T17:18:52.419Z,45.54
2023-03-17T17:21:19.227Z,45.53
2023-03-17T17:23:46.201Z,45.57
2023-03-17T17:26:13.229Z,45.57
2023-03-17T17:28:40.465Z,45.72
2023-03-17T17:31:09.000Z,45.89
2023-03-17T17:33:37.345Z,46.27
2023-03-17T17:36:07.844Z,46.34
2023-03-17T17:38:34.718Z,46.31
2023-03-17T17:41:06.969Z,46.24
2023-03-17T17:43:34.008Z,46.31
2023-03-17T17:46:01.255Z,46.26
2023-03-17T17:48:28.695Z,46.35
2023-03-17T17:50:56.912Z,46.38
2023-03-17T17:53:24.520Z,46.42
2023-03-17T17:55:51.942Z,46.51
2023-03-17T17:58:23.108Z,46.60
2023-03-17T18:00:50.936Z,46.66
2023-03-17T18:03:22.220Z,46.78
2023-03-17T18:05:49.552Z,46.94
2023-03-17T18:08:17.042Z,47.01
2023-03-17T18:10:43.809Z,47.09
2023-03-17T18:13:11.030Z,47.30
2023-03-17T18:15:38.170Z,47.33
2023-03-17T18:18:05.778Z,47.47
2023-03-17T18:20:33.018Z,47.50
2023-03-17T18:23:00.140Z,47.59
2023-03-17T18:25:27.275Z,47.44
2023-03-17T18:27:55.052Z,47.39
2023-03-17T18:30:25.690Z,47.20
2023-03-17T18:32:57.271Z,47.20
2023-03-17T18:35:27.164Z,47.21
2023-03-17T18:37:57.106Z,47.30
2023-03-17T18:40:25.043Z,47.40
2023-03-17T18:42:51.869Z,47.42
2023-03-17T18:45:18.900Z,47.51
2023-03-17T18:47:45.697Z,47.60
2023-03-17T18:50:14.371Z,47.84
2023-03-17T18:52:42.817Z,47.83
2023-03-17T18:55:12.490Z,47.98
2023-03-17T18:57:44.462Z,47.98
2023-03-17T19:00:13.991Z,48.12
2023-03-17T19:02:40.758Z,48.03
2023-03-17T19:05:08.554Z,48.07
2023-03-17T19:07:35.786Z,48.03
2023-03-17T19:10:04.684Z,48.03
2023-03-17T19:12:32.024Z,48.32
2023-03-17T19:14:59.292Z,48.46
2023-03-17T19:17:26.072Z,48.64
2023-03-17T19:19:52.848Z,48.82
2023-03-17T19:22:19.793Z,49.20
2023-03-17T19:24:48.186Z,49.50
2023-03-17T19:27:15.064Z,49.62
2023-03-17T19:29:42.093Z,49.62
2023-03-17T19:32:09.573Z,49.73
2023-03-17T19:34:36.644Z,49.70
2023-03-17T19:37:04.061Z,49.73
2023-03-17T19:39:31.460Z,49.97
2023-03-17T19:41:59.379Z,50.07
2023-03-17T19:44:26.541Z,50.16
2023-03-17T19:46:53.440Z,50.40
2023-03-17T19:49:21.275Z,50.69
2023-03-17T19:51:49.150Z,50.80
2023-03-17T19:54:16.709Z,50.91
2023-03-17T19:56:43.589Z,50.99
2023-03-17T19:59:10.500Z,51.09
2023-03-17T20:01:38.730Z,51.20
2023-03-17T20:04:07.145Z,51.31
2023-03-17T20:06:34.775Z,51.40
2023-03-17T20:09:04.270Z,51.43
2023-03-17T20:11:34.907Z,51.79
2023-03-17T20:14:02.851Z,51.98
2023-03-17T20:16:36.157Z,52.11
2023-03-17T20:19:04.167Z,52.29
2023-03-17T20:21:31.490Z,52.56
2023-03-17T20:23:58.397Z,52.59
2023-03-17T20:26:25.394Z,52.72
2023-03-17T20:28:52.504Z,52.82
2023-03-17T20:31:19.538Z,52.86
2023-03-17T20:33:46.427Z,52.98
2023-03-17T20:36:14.087Z,53.17
2023-03-17T20:38:43.162Z,53.28
2023-03-17T20:41:16.054Z,53.20
2023-03-17T20:43:43.542Z,53.18
2023-03-17T20:46:19.534Z,53.13
2023-03-17T20:48:48.326Z,53.30
2023-03-17T20:51:17.248Z,53.53
2023-03-17T20:53:46.332Z,53.64
2023-03-17T20:56:19.783Z,54.00
2023-03-17T20:58:48.593Z,54.27
2023-03-17T21:01:20.758Z,54.28
2023-03-17T21:03:49.061Z,54.24
2023-03-17T21:06:16.764Z,54.34
2023-03-17T21:08:44.057Z,54.33
2023-03-17T21:11:15.344Z,54.34
2023-03-17T21:13:44.181Z,54.49
2023-03-17T21:16:25.173Z,54.40
2023-03-17T21:18:52.628Z,54.53
2023-03-17T21:21:20.887Z,54.80
2023-03-17T21:23:48.117Z,54.79
2023-03-17T21:26:14.957Z,54.90
2023-03-17T21:28:42.509Z,54.93
2023-03-17T21:31:10.448Z,54.98
2023-03-17T21:33:37.568Z,55.01
2023-03-17T21:36:05.751Z,55.11
2023-03-17T21:38:32.743Z,55.22
2023-03-17T21:41:21.493Z,55.36
2023-03-17T21:43:48.296Z,55.25
2023-03-17T21:46:15.456Z,55.28
2023-03-17T21:48:42.325Z,55.38
2023-03-17T21:51:09.184Z,55.21
2023-03-17T21:53:35.964Z,55.22
2023-03-17T21:56:02.823Z,55.37
2023-03-17T21:58:29.701Z,55.38
2023-03-17T22:00:56.599Z,55.50
2023-03-17T22:03:23.399Z,55.69
2023-03-17T22:05:50.921Z,55.73
2023-03-17T22:08:18.372Z,56.04
2023-03-17T22:10:45.098Z,56.20
2023-03-17T22:13:12.584Z,56.20
2023-03-17T22:15:39.425Z,56.29
2023-03-17T22:18:06.228Z,56.34
2023-03-17T22:20:33.432Z,56.36
2023-03-17T22:23:00.536Z,56.42
2023-03-17T22:25:27.612Z,56.41
2023-03-17T22:27:54.453Z,56.37
2023-03-17T22:30:21.833Z,56.51
2023-03-17T22:32:49.011Z,56.62
2023-03-17T22:35:19.221Z,56.66
2023-03-17T22:37:46.567Z,56.74
2023-03-17T22:40:13.657Z,56.85
2023-03-17T22:42:40.620Z,56.77
2023-03-17T22:45:08.600Z,56.85
2023-03-17T22:47:35.520Z,56.82
2023-03-17T22:50:02.331Z,56.69
2023-03-17T22:52:29.968Z,56.93
2023-03-17T22:54:56.831Z,57.14
2023-03-17T22:57:23.791Z,56.96
2023-03-17T22:59:52.227Z,57.05
2023-03-17T23:02:19.040Z,57.26
2023-03-17T23:04:45.807Z,57.35
2023-03-17T23:07:12.578Z,57.30
2023-03-17T23:09:41.395Z,57.30
2023-03-17T23:12:09.126Z,57.36
2023-03-17T23:14:37.203Z,57.37
2023-03-17T23:17:06.155Z,57.44
2023-03-17T23:19:33.179Z,57.37
2023-03-17T23:22:00.045Z,57.35
2023-03-17T23:24:27.011Z,57.33
2023-03-17T23:26:53.749Z,57.36
2023-03-17T23:29:20.486Z,57.31
2023-03-17T23:31:47.636Z,57.30
2023-03-17T23:34:14.379Z,57.35
2023-03-17T23:36:41.203Z,57.35
2023-03-17T23:39:09.211Z,57.30
2023-03-17T23:41:36.330Z,57.38
2023-03-17T23:44:04.375Z,57.42
2023-03-17T23:46:31.734Z,57.41
2023-03-17T23:48:58.609Z,57.39
2023-03-17T23:51:25.353Z,57.63
2023-03-17T23:53:53.084Z,57.49
2023-03-17T23:56:20.688Z,57.55
2023-03-17T23:58:49.142Z,57.60
